Time;durP1;ratioP1;P1;durP2;ratioP2;P2;SDS_P1;SDS_P2;PMS_P1;PMS_P2;Temp;Humidity;BMP_temperature;BMP_pressure;BME280_temperature;BME280_humidity;BME280_pressure;Samples;Min_cycle;Max_cycle;Signal;HPM_P1;HPM_P2
2022/06/10 00:02:22;;;;;;;2.73;2.10;;;13.40;99.90;;;14.13;100.00;98712.78;4982490;28;20882;-76
2022/06/10 00:04:54;;;;;;;2.13;1.93;;;13.30;99.90;;;14.16;100.00;98712.41;4978308;28;20460;-76
2022/06/10 00:07:27;;;;;;;2.23;2.00;;;13.20;99.90;;;14.17;100.00;98714.03;4977598;28;20511;-76
2022/06/10 00:09:58;;;;;;;7.20;2.20;;;13.20;99.90;;;14.15;100.00;98723.13;4978773;28;20491;-76
2022/06/10 00:12:28;;;;;;;4.87;2.20;;;13.20;99.90;;;14.08;100.00;98721.28;4978089;28;20471;-76
2022/06/10 00:14:57;;;;;;;3.33;1.90;;;13.20;99.90;;;14.08;100.00;98723.09;4979936;28;20464;-76
2022/06/10 00:17:27;;;;;;;2.50;2.10;;;13.10;99.90;;;14.00;100.00;98724.03;4981119;28;20457;-76
2022/06/10 00:19:57;;;;;;;2.00;1.80;;;13.10;99.90;;;13.99;100.00;98721.59;4979763;28;20500;-76
2022/06/10 00:22:27;;;;;;;5.40;2.20;;;13.00;99.90;;;13.98;100.00;98723.44;4978656;28;20504;-76
2022/06/10 00:24:59;;;;;;;1.87;1.67;;;13.00;99.90;;;13.97;100.00;98726.25;4980056;28;20545;-76
2022/06/10 00:27:29;;;;;;;3.03;2.00;;;13.00;99.90;;;13.96;100.00;98720.16;4978735;28;20579;-76
2022/06/10 00:29:58;;;;;;;9.27;2.17;;;13.00;99.90;;;13.92;100.00;98737.31;4982766;28;20472;-76
2022/06/10 00:32:28;;;;;;;2.90;2.00;;;13.00;99.90;;;13.93;100.00;98725.00;4979160;28;20476;-76
2022/06/10 00:34:58;;;;;;;4.40;1.50;;;13.00;99.90;;;13.90;100.00;98723.56;4978262;28;20868;-76
2022/06/10 00:37:27;;;;;;;3.10;2.27;;;12.90;99.90;;;13.90;100.00;98733.28;4979167;28;20468;-76
2022/06/10 00:39:59;;;;;;;2.67;1.80;;;12.80;99.90;;;13.89;100.00;98729.81;4983455;28;20483;-76
2022/06/10 00:42:30;;;;;;;3.63;1.87;;;12.80;99.90;;;13.81;100.00;98729.16;4982035;28;20459;-76
2022/06/10 00:45:00;;;;;;;2.43;2.00;;;12.90;99.90;;;13.77;100.00;98726.09;4982407;28;20500;-76
2022/06/10 00:47:37;;;;;;;2.77;2.07;;;12.80;99.90;;;13.71;100.00;98731.31;4983099;28;20476;-76
2022/06/10 00:50:22;;;;;;;4.53;2.10;;;12.80;99.90;;;13.70;100.00;98734.94;4981752;28;20473;-76
2022/06/10 00:53:00;;;;;;;3.53;2.20;;;12.80;99.90;;;13.70;100.00;98732.31;4981277;28;21190;-76
2022/06/10 00:55:36;;;;;;;5.53;2.07;;;12.70;99.90;;;13.64;100.00;98727.81;4980962;28;20524;-76
2022/06/10 00:58:15;;;;;;;3.17;2.00;;;12.70;99.90;;;13.57;100.00;98725.91;4979583;28;20463;-76
2022/06/10 01:00:45;;;;;;;1.97;1.80;;;12.70;99.90;;;13.55;100.00;98722.69;4980238;28;20483;-76
2022/06/10 01:03:15;;;;;;;1.93;1.73;;;12.70;99.90;;;13.49;100.00;98733.94;4980406;28;20482;-76
2022/06/10 01:05:45;;;;;;;6.43;1.90;;;12.60;99.90;;;13.48;100.00;98727.06;4980638;28;20818;-76
2022/06/10 01:08:19;;;;;;;2.00;1.80;;;12.60;99.90;;;13.47;100.00;98730.69;4979021;28;20471;-76
2022/06/10 01:11:08;;;;;;;3.40;2.33;;;12.50;99.90;;;13.36;100.00;98728.56;4983384;28;20467;-76
2022/06/10 01:13:52;;;;;;;4.43;2.37;;;12.60;99.90;;;13.35;100.00;98726.94;4977880;28;20580;-76
2022/06/10 01:16:35;;;;;;;2.73;2.33;;;12.50;99.90;;;13.34;100.00;98729.75;4977355;28;20478;-76
2022/06/10 01:19:28;;;;;;;3.07;2.30;;;12.50;99.90;;;13.24;100.00;98732.69;4979002;28;20493;-76
2022/06/10 01:22:33;;;;;;;2.27;1.90;;;12.50;99.90;;;13.28;100.00;98739.19;4978680;28;20484;-76
2022/06/10 01:25:44;;;;;;;3.23;2.50;;;12.40;99.90;;;13.24;100.00;98737.94;4977703;28;20560;-76
2022/06/10 01:28:38;;;;;;;4.00;2.40;;;12.40;99.90;;;13.23;100.00;98731.06;4978986;28;20472;-76
2022/06/10 01:31:27;;;;;;;7.10;1.73;;;12.30;99.90;;;13.18;100.00;98732.63;4978568;28;20499;-76
2022/06/10 01:34:15;;;;;;;5.00;1.63;;;12.30;99.90;;;13.10;100.00;98736.19;4978166;28;20518;-76
2022/06/10 01:36:55;;;;;;;3.03;2.03;;;12.30;99.90;;;13.04;100.00;98734.28;4976137;28;20530;-77
2022/06/10 01:39:44;;;;;;;4.80;3.03;;;12.30;99.90;;;12.98;100.00;98729.78;4976634;28;20538;-77
2022/06/10 01:42:24;;;;;;;3.40;1.57;;;12.20;99.90;;;13.01;100.00;98737.28;4982116;28;20491;-76
2022/06/10 01:45:03;;;;;;;6.33;2.37;;;12.20;99.90;;;13.01;100.00;98727.59;4979242;28;20448;-76
2022/06/10 01:47:46;;;;;;;4.13;2.00;;;12.10;99.90;;;13.03;100.00;98724.75;4979284;28;20470;-76
2022/06/10 01:50:24;;;;;;;3.30;1.97;;;12.10;99.90;;;12.92;100.00;98730.47;4984205;28;20479;-76
2022/06/10 01:53:00;;;;;;;3.20;1.90;;;12.10;99.90;;;12.84;100.00;98730.63;4979703;28;20522;-76
2022/06/10 01:55:37;;;;;;;5.20;2.23;;;12.10;99.90;;;12.84;100.00;98730.63;4977921;28;20860;-76
2022/06/10 01:58:15;;;;;;;2.83;2.10;;;12.10;99.90;;;12.83;100.00;98734.22;4979539;28;20915;-76
2022/06/10 02:00:51;;;;;;;3.47;1.97;;;11.90;99.90;;;12.82;100.00;98729.97;4980157;28;21071;-76
2022/06/10 02:03:30;;;;;;;2.67;2.10;;;12.00;99.90;;;12.72;100.00;98732.06;4980223;28;20524;-76
2022/06/10 02:06:08;;;;;;;1.70;1.60;;;12.00;99.90;;;12.67;100.00;98729.19;4980007;28;20969;-76
2022/06/10 02:08:45;;;;;;;2.10;1.70;;;11.90;99.90;;;12.68;100.00;98729.00;4979827;28;20444;-76
2022/06/10 02:11:20;;;;;;;5.23;2.03;;;11.80;99.90;;;12.67;100.00;98735.22;4979880;28;20440;-76
2022/06/10 02:13:58;;;;;;;2.20;1.80;;;11.80;99.90;;;12.66;100.00;98727.56;4983126;28;20460;-76
2022/06/10 02:16:36;;;;;;;2.40;1.80;;;11.80;99.90;;;12.66;100.00;98732.81;4980700;28;20461;-76
2022/06/10 02:19:16;;;;;;;2.10;1.90;;;11.70;99.90;;;12.63;100.00;98730.56;4981029;28;20566;-76
2022/06/10 02:21:53;;;;;;;6.73;2.00;;;11.70;99.90;;;12.61;100.00;98741.22;4978925;28;20495;-77
2022/06/10 02:24:29;;;;;;;2.30;1.70;;;11.70;99.90;;;12.48;100.00;98728.75;4981358;28;20901;-76
2022/06/10 02:27:05;;;;;;;5.00;2.27;;;11.70;99.90;;;12.46;100.00;98735.19;4980364;28;20446;-76
2022/06/10 02:29:41;;;;;;;2.93;1.97;;;11.70;99.90;;;12.52;100.00;98734.47;4979335;28;20482;-76
2022/06/10 02:32:14;;;;;;;3.13;1.80;;;11.60;99.90;;;12.53;100.00;98736.88;4979705;28;20455;-76
2022/06/10 02:34:46;;;;;;;3.07;1.90;;;11.60;99.90;;;12.45;100.00;98741.41;4980308;28;20440;-76
2022/06/10 02:37:26;;;;;;;7.00;1.87;;;11.60;99.90;;;12.41;100.00;98750.66;4980484;28;20510;-76
2022/06/10 02:40:08;;;;;;;8.57;2.30;;;11.60;99.90;;;12.34;100.00;98744.50;4984071;28;20447;-76
2022/06/10 02:42:46;;;;;;;4.60;2.00;;;11.60;99.90;;;12.34;100.00;98747.94;4980694;28;20480;-76
2022/06/10 02:45:28;;;;;;;3.37;1.93;;;11.50;99.90;;;12.35;100.00;98752.19;4979229;28;20850;-76
2022/06/10 02:48:05;;;;;;;2.43;1.90;;;11.50;99.90;;;12.30;100.00;98759.78;4980513;28;20505;-76
2022/06/10 02:50:39;;;;;;;1.73;1.57;;;11.50;99.90;;;12.24;100.00;98755.25;4980005;28;21046;-76
2022/06/10 02:53:11;;;;;;;6.40;2.00;;;11.40;99.90;;;12.23;100.00;98747.56;4980257;28;20531;-76
2022/06/10 02:55:41;;;;;;;3.93;2.20;;;11.40;99.90;;;12.17;100.00;98751.72;4980306;28;20450;-76
2022/06/10 03:01:18;;;;;;;3.73;1.97;;;11.40;99.90;;;12.14;100.00;98759.94;4978647;28;20571;-76
2022/06/10 03:04:35;;;;;;;4.40;1.90;;;11.40;99.90;;;12.15;100.00;98760.78;4980078;28;20883;-76
2022/06/10 03:07:37;;;;;;;10.73;2.10;;;11.30;99.90;;;12.06;100.00;98757.41;4979568;28;20453;-76
2022/06/10 03:10:22;;;;;;;4.50;1.90;;;11.30;99.90;;;12.05;100.00;98767.06;4984481;28;20488;-85
2022/06/10 03:13:18;;;;;;;3.33;1.87;;;11.20;99.90;;;12.02;100.00;98771.84;4982597;28;20480;-76
2022/06/10 03:16:05;;;;;;;2.00;1.87;;;11.20;99.90;;;11.95;100.00;98778.78;4978795;28;20475;-76
2022/06/10 03:18:48;;;;;;;2.40;2.13;;;11.20;99.90;;;12.00;100.00;98776.47;4976710;28;20592;-76
2022/06/10 03:21:36;;;;;;;2.33;1.90;;;11.20;99.90;;;11.97;100.00;98776.81;4980539;28;20488;-76
2022/06/10 03:24:27;;;;;;;8.30;2.30;;;11.10;99.90;;;11.90;100.00;98795.06;4986427;28;20472;-89
2022/06/10 03:27:04;;;;;;;2.73;2.43;;;11.10;99.90;;;11.92;100.00;98787.84;4980975;28;20900;-77
2022/06/10 03:29:47;;;;;;;2.87;1.93;;;11.00;99.90;;;11.92;100.00;98781.78;4982302;28;20982;-77
2022/06/10 03:32:25;;;;;;;15.00;2.43;;;11.00;99.90;;;11.83;100.00;98794.16;4983127;28;20524;-76
2022/06/10 03:35:01;;;;;;;2.60;2.20;;;11.10;99.90;;;11.80;100.00;98798.94;4983749;28;20529;-76
2022/06/10 03:37:32;;;;;;;2.17;1.90;;;11.10;99.90;;;11.72;100.00;98797.19;4983722;28;20459;-83
2022/06/10 03:40:04;;;;;;;8.23;4.00;;;11.10;99.90;;;11.68;100.00;98797.66;4985197;28;20476;-76
2022/06/10 03:42:33;;;;;;;1.90;1.73;;;11.00;99.90;;;11.67;100.00;98809.13;4981208;28;21056;-76
2022/06/10 03:45:04;;;;;;;2.30;1.90;;;11.00;99.90;;;11.63;100.00;98805.25;4984771;28;20552;-76
2022/06/10 03:47:38;;;;;;;4.77;2.27;;;11.00;99.90;;;11.69;100.00;98799.31;4984005;28;20494;-76
2022/06/10 03:50:13;;;;;;;7.33;2.30;;;10.90;99.90;;;11.69;100.00;98801.91;4981521;28;20483;-76
2022/06/10 03:52:46;;;;;;;2.90;2.20;;;10.90;99.90;;;11.65;100.00;98805.88;4984663;28;20444;-76
2022/06/10 03:55:20;;;;;;;5.67;2.10;;;10.90;99.90;;;11.66;100.00;98812.75;4980735;28;20448;-76
2022/06/10 03:57:50;;;;;;;3.97;2.03;;;10.90;99.90;;;11.70;100.00;98812.22;4980154;28;20456;-76
2022/06/10 04:00:25;;;;;;;2.87;1.80;;;10.80;99.90;;;11.74;100.00;98812.72;4981958;28;20475;-76
2022/06/10 04:02:55;;;;;;;3.63;2.10;;;10.80;99.90;;;11.74;100.00;98823.19;4983644;28;20498;-76
2022/06/10 04:05:25;;;;;;;3.40;2.90;;;10.90;99.90;;;11.70;100.00;98827.94;4981233;28;20464;-83
2022/06/10 04:07:55;;;;;;;4.00;2.30;;;10.80;99.90;;;11.64;100.00;98828.63;4989945;28;20467;-76
2022/06/10 04:10:30;;;;;;;3.43;2.33;;;10.90;99.90;;;11.65;100.00;98829.44;4983765;28;20443;-76
2022/06/10 04:13:00;;;;;;;3.87;2.43;;;10.90;99.90;;;11.65;100.00;98832.88;4982761;28;20437;-76
2022/06/10 04:15:32;;;;;;;2.63;1.73;;;10.80;99.90;;;11.63;100.00;98827.81;4982664;28;20462;-76
2022/06/10 04:18:04;;;;;;;4.77;2.10;;;10.80;99.90;;;11.71;100.00;98828.78;4983077;28;20833;-76
2022/06/10 04:20:37;;;;;;;12.40;6.80;;;10.80;99.90;;;11.66;100.00;98834.53;4995045;28;20531;-76
2022/06/10 04:23:08;;;;;;;2.20;1.93;;;10.90;99.90;;;11.63;100.00;98834.06;4981776;28;20984;-76
2022/06/10 04:25:40;;;;;;;5.70;2.70;;;10.90;99.90;;;11.63;100.00;98831.44;4983417;28;20954;-76
2022/06/10 04:28:10;;;;;;;2.20;2.00;;;10.80;99.90;;;11.71;100.00;98831.41;4984313;28;20491;-77
2022/06/10 04:30:42;;;;;;;2.00;1.80;;;10.80;99.90;;;11.71;100.00;98829.59;4981825;28;20460;-76
2022/06/10 04:33:12;;;;;;;2.10;1.87;;;10.80;99.90;;;11.75;100.00;98828.25;4982251;28;20445;-76
2022/06/10 04:35:46;;;;;;;1.70;1.60;;;10.80;99.90;;;11.76;100.00;98834.31;4983733;28;20946;-76
2022/06/10 04:38:20;;;;;;;5.28;2.90;;;10.80;99.90;;;11.83;100.00;98835.25;4983007;28;20563;-76
2022/06/10 04:40:52;;;;;;;2.60;2.10;;;10.90;99.90;;;11.88;100.00;98838.16;4984167;28;20693;-77
2022/06/10 04:43:22;;;;;;;3.57;2.50;;;10.90;99.90;;;11.90;100.00;98836.19;4983843;28;20528;-76
2022/06/10 04:45:55;;;;;;;7.27;2.83;;;10.90;99.90;;;11.93;100.00;98836.66;4983565;28;20998;-77
2022/06/10 04:48:25;;;;;;;3.40;2.23;;;11.00;99.90;;;11.96;100.00;98836.28;4982806;28;20449;-76
2022/06/10 04:50:54;;;;;;;3.10;2.80;;;11.00;99.90;;;11.98;100.00;98836.91;4984499;28;20464;-77
2022/06/10 04:53:25;;;;;;;4.20;2.30;;;11.00;99.90;;;12.02;100.00;98834.75;4984648;28;20535;-76
2022/06/10 04:55:57;;;;;;;3.07;2.00;;;11.10;99.90;;;12.06;100.00;98831.63;4982381;28;20448;-76
2022/06/10 04:58:27;;;;;;;2.17;1.97;;;11.10;99.90;;;12.06;100.00;98836.03;4980795;28;20476;-77
2022/06/10 05:00:57;;;;;;;2.20;1.93;;;11.10;99.90;;;12.08;100.00;98831.44;4981822;28;20857;-77
2022/06/10 05:03:27;;;;;;;5.37;2.10;;;11.20;99.90;;;12.10;100.00;98837.31;4983538;28;20496;-76
2022/06/10 05:05:59;;;;;;;2.90;2.07;;;11.20;99.90;;;12.13;100.00;98836.97;4982450;28;20456;-76
2022/06/10 05:08:30;;;;;;;3.40;2.57;;;11.20;99.90;;;12.16;100.00;98826.13;4981786;28;20459;-76
2022/06/10 05:11:02;;;;;;;2.20;1.97;;;11.30;99.90;;;12.21;100.00;98834.28;4984173;28;20441;-76
2022/06/10 05:13:31;;;;;;;2.60;2.03;;;11.30;99.90;;;12.25;100.00;98825.03;4984002;28;20455;-77
2022/06/10 05:16:01;;;;;;;3.33;2.27;;;11.30;99.90;;;12.30;100.00;98833.22;4984331;28;20504;-76
2022/06/10 05:18:33;;;;;;;2.40;1.90;;;11.40;99.90;;;12.33;100.00;98832.84;4981903;28;20469;-76
2022/06/10 05:21:04;;;;;;;2.23;2.03;;;11.40;99.90;;;12.34;100.00;98831.84;4981472;28;20938;-77
2022/06/10 05:23:35;;;;;;;2.93;2.27;;;11.50;99.90;;;12.38;100.00;98825.28;4980782;28;20527;-76
2022/06/10 05:26:06;;;;;;;2.77;1.97;;;11.50;99.90;;;12.41;100.00;98827.53;4984962;28;20515;-77
2022/06/10 05:28:38;;;;;;;3.20;2.27;;;11.50;99.90;;;12.42;100.00;98823.91;4982262;28;20476;-77
2022/06/10 05:31:07;;;;;;;3.00;2.07;;;11.50;99.90;;;12.44;100.00;98824.53;4980683;28;20558;-76
2022/06/10 05:36:25;;;;;;;2.73;1.90;;;11.50;99.90;;;12.48;100.00;98831.06;4981682;28;20464;-77
2022/06/10 05:38:56;;;;;;;4.10;2.00;;;11.50;99.90;;;12.50;100.00;98834.31;4981959;28;20540;-76
2022/06/10 05:44:15;;;;;;;4.50;2.07;;;11.60;99.90;;;12.60;100.00;98840.09;4981959;28;20480;-77
2022/06/10 05:46:45;;;;;;;3.00;1.93;;;11.70;99.90;;;12.66;100.00;98837.78;4982733;28;20448;-77
2022/06/10 05:49:16;;;;;;;2.73;1.97;;;11.80;99.90;;;12.69;100.00;98838.22;4982895;28;20440;-76
2022/06/10 05:51:46;;;;;;;3.10;2.23;;;11.80;99.90;;;12.74;100.00;98835.84;4982801;28;20831;-76
2022/06/10 05:54:17;;;;;;;7.10;2.40;;;11.80;99.90;;;12.78;100.00;98841.56;4981764;28;20507;-76
2022/06/10 05:56:49;;;;;;;2.47;1.90;;;11.90;99.90;;;12.81;100.00;98836.75;4984276;28;20447;-76
2022/06/10 05:59:19;;;;;;;2.10;1.87;;;11.90;99.90;;;12.86;100.00;98841.47;4982842;28;20853;-76
2022/06/10 06:01:51;;;;;;;3.93;2.50;;;11.90;99.90;;;12.90;100.00;98846.19;4981819;28;20503;-76
2022/06/10 06:04:21;;;;;;;2.63;2.33;;;12.00;99.90;;;12.95;100.00;98848.25;4984154;28;20484;-77
2022/06/10 06:06:51;;;;;;;1.87;1.70;;;12.00;99.90;;;12.99;100.00;98846.91;4981804;28;20468;-76
2022/06/10 06:09:21;;;;;;;4.80;2.50;;;12.10;99.90;;;13.03;100.00;98841.09;4980836;28;20453;-77
2022/06/10 06:11:56;;;;;;;4.70;2.30;;;12.10;99.90;;;13.09;100.00;98842.19;4978809;28;20547;-77
2022/06/10 06:14:29;;;;;;;2.80;2.10;;;12.20;99.90;;;13.13;100.00;98838.22;4982384;28;20467;-77
2022/06/10 06:17:02;;;;;;;4.67;2.40;;;12.30;99.90;;;13.19;100.00;98837.47;4982488;28;20959;-76
2022/06/10 06:19:34;;;;;;;5.63;2.60;;;12.40;99.90;;;13.24;100.00;98837.75;4982402;28;20552;-76
2022/06/10 06:22:05;;;;;;;6.77;2.50;;;12.40;99.90;;;13.29;100.00;98840.66;4979469;28;20492;-76
2022/06/10 06:24:39;;;;;;;8.63;2.80;;;12.50;99.90;;;13.33;100.00;98836.63;4979753;28;20986;-77
2022/06/10 06:27:16;;;;;;;21.73;2.40;;;12.50;99.90;;;13.39;100.00;98835.09;4981429;28;20468;-77
2022/06/10 06:29:47;;;;;;;7.73;3.17;;;12.60;99.90;;;13.45;100.00;98835.16;4981992;28;20983;-77
2022/06/10 06:32:18;;;;;;;4.70;2.40;;;12.70;99.90;;;13.51;100.00;98836.22;4980119;28;20506;-76
2022/06/10 06:34:47;;;;;;;3.57;2.73;;;12.70;99.90;;;13.56;100.00;98847.81;4983429;28;20510;-77
2022/06/10 06:37:18;;;;;;;3.80;2.70;;;12.80;99.90;;;13.64;100.00;98843.47;4982445;28;20488;-77
2022/06/10 06:39:48;;;;;;;7.43;2.33;;;12.90;99.90;;;13.69;100.00;98834.00;4983729;28;20448;-76
2022/06/10 06:42:21;;;;;;;4.37;2.40;;;12.90;99.90;;;13.76;100.00;98836.69;4981920;28;20523;-77
2022/06/10 06:44:52;;;;;;;2.40;2.00;;;13.00;99.90;;;13.81;100.00;98831.69;4983647;28;20499;-77
2022/06/10 06:47:43;;;;;;;2.20;1.90;;;13.00;99.90;;;13.88;100.00;98832.56;4981790;28;20559;-77
2022/06/10 06:50:19;;;;;;;2.37;2.00;;;13.10;99.90;;;13.94;100.00;98829.19;4980275;28;20487;-77
2022/06/10 06:52:49;;;;;;;6.47;2.50;;;13.10;99.90;;;14.00;100.00;98820.53;4982072;28;20459;-77
2022/06/10 06:55:20;;;;;;;6.03;2.80;;;13.20;99.90;;;14.05;100.00;98826.03;4980908;28;20456;-77
2022/06/10 06:57:51;;;;;;;2.60;1.80;;;13.30;99.90;;;14.13;100.00;98833.00;4984378;28;20451;-77
2022/06/10 07:00:22;;;;;;;6.17;2.30;;;13.30;99.90;;;14.19;100.00;98830.41;4987610;28;20440;-77
2022/06/10 07:02:53;;;;;;;3.00;2.07;;;13.50;99.90;;;14.29;100.00;98838.78;4986446;28;20452;-77
2022/06/10 07:05:24;;;;;;;10.83;2.30;;;13.50;99.90;;;14.33;100.00;98840.03;4985917;28;20455;-77
2022/06/10 07:07:56;;;;;;;2.63;2.10;;;13.60;99.90;;;14.41;100.00;98837.28;4986390;28;20460;-77
2022/06/10 07:10:26;;;;;;;5.33;2.00;;;13.70;99.90;;;14.48;100.00;98832.06;4984995;28;20464;-77
2022/06/10 07:13:00;;;;;;;4.80;2.30;;;13.80;99.90;;;14.52;100.00;98831.47;4984137;28;20502;-77
2022/06/10 07:15:31;;;;;;;3.10;1.80;;;13.80;99.90;;;14.59;100.00;98834.97;4987223;28;20519;-77
2022/06/10 07:18:02;;;;;;;3.87;2.30;;;13.90;99.90;;;14.66;100.00;98839.47;4987014;28;20463;-77
2022/06/10 07:20:36;;;;;;;7.60;3.03;;;13.90;99.90;;;14.71;100.00;98829.19;4985144;28;20525;-77
2022/06/10 07:23:06;;;;;;;3.07;1.67;;;14.00;99.90;;;14.78;100.00;98845.81;4985464;28;20456;-77
2022/06/10 07:25:37;;;;;;;5.60;2.57;;;14.10;99.90;;;14.83;100.00;98836.31;4984183;28;20818;-77
2022/06/10 07:28:09;;;;;;;5.27;1.87;;;14.20;99.90;;;14.91;100.00;98840.63;4984724;28;20543;-77
2022/06/10 07:30:39;;;;;;;10.77;2.20;;;14.30;99.90;;;14.96;100.00;98836.38;4983898;28;20440;-77
2022/06/10 07:33:09;;;;;;;11.70;2.13;;;14.30;99.90;;;15.06;100.00;98839.47;4986341;28;20456;-77
2022/06/10 07:35:40;;;;;;;11.50;2.50;;;14.40;99.90;;;15.18;100.00;98845.00;4986668;28;20471;-77
2022/06/10 07:38:13;;;;;;;2.40;1.90;;;14.60;99.90;;;15.24;100.00;98838.16;4985082;28;20463;-77
2022/06/10 07:43:45;;;;;;;3.07;2.17;;;14.70;99.90;;;15.38;100.00;98840.63;4985290;28;20861;-77
2022/06/10 07:46:18;;;;;;;5.17;2.17;;;14.80;99.90;;;15.45;100.00;98835.34;4984825;28;20466;-78
2022/06/10 07:48:51;;;;;;;6.30;1.80;;;14.80;99.90;;;15.50;100.00;98832.97;4984791;28;20531;-78
2022/06/10 07:51:21;;;;;;;5.23;2.00;;;14.90;99.90;;;15.56;100.00;98833.00;4985596;28;20468;-78
2022/06/10 07:53:52;;;;;;;8.20;2.00;;;15.00;99.90;;;15.62;100.00;98828.75;4985276;28;20975;-78
2022/06/10 07:56:22;;;;;;;9.03;2.50;;;15.00;99.90;;;15.71;100.00;98835.47;4982180;28;20459;-78
2022/06/10 07:58:57;;;;;;;5.20;1.73;;;15.10;99.90;;;15.83;100.00;98833.03;4985388;28;20924;-77
2022/06/10 08:01:28;;;;;;;17.13;2.30;;;15.30;99.90;;;15.90;100.00;98837.31;4984062;28;20449;-78
2022/06/10 08:03:59;;;;;;;7.50;1.77;;;15.40;99.90;;;15.98;100.00;98831.03;4986343;28;20480;-78
2022/06/10 08:06:30;;;;;;;5.20;1.77;;;15.40;99.90;;;16.10;100.00;98837.34;4984503;28;20449;-78
2022/06/10 08:09:01;;;;;;;10.53;2.27;;;15.50;99.90;;;16.15;100.00;98840.16;4986704;28;20445;-77
2022/06/10 08:11:32;;;;;;;12.40;2.13;;;15.60;99.90;;;16.21;100.00;98831.44;4983131;28;20494;-77
2022/06/10 08:14:04;;;;;;;6.40;1.60;;;15.60;99.90;;;16.27;100.00;98829.81;4983229;28;20947;-77
2022/06/10 08:16:36;;;;;;;7.20;1.90;;;15.70;99.90;;;16.34;100.00;98836.72;4984355;28;20969;-77
2022/06/10 08:19:06;;;;;;;3.70;1.70;;;15.80;99.90;;;16.42;100.00;98828.59;4983541;28;20515;-78
2022/06/10 08:24:25;;;;;;;11.67;2.47;;;16.00;99.90;;;16.54;100.00;98826.16;4983741;28;20484;-77
2022/06/10 08:26:55;;;;;;;7.90;1.80;;;16.00;99.90;;;16.60;100.00;98828.81;4984829;28;20456;-78
2022/06/10 08:29:27;;;;;;;7.50;1.60;;;16.10;99.90;;;16.70;100.00;98823.09;4981448;28;20467;-77
2022/06/10 08:31:57;;;;;;;10.90;2.10;;;16.10;99.90;;;16.78;100.00;98827.34;4986332;28;20515;-76
2022/06/10 08:34:26;;;;;;;5.73;2.00;;;16.20;99.90;;;16.85;100.00;98822.84;4983657;28;20461;-76
2022/06/10 08:36:57;;;;;;;3.73;1.73;;;16.30;99.90;;;16.92;100.00;98828.94;4983526;28;20458;-77
2022/06/10 08:39:28;;;;;;;3.73;1.63;;;16.40;99.90;;;16.97;100.00;98832.56;4983212;28;20447;-77
2022/06/10 08:42:19;;;;;;;10.60;1.90;;;16.40;99.90;;;17.03;100.00;98825.66;4984334;28;20453;-77
2022/06/10 08:44:54;;;;;;;5.67;2.10;;;16.50;99.90;;;17.10;100.00;98837.00;4982688;28;20494;-77
2022/06/10 08:47:52;;;;;;;7.97;2.03;;;16.60;99.90;;;17.15;100.00;98836.38;4984467;28;20444;-77
2022/06/10 08:50:46;;;;;;;8.70;1.50;;;16.60;99.90;;;17.23;100.00;98836.94;4985267;28;20459;-77
2022/06/10 08:53:57;;;;;;;10.43;2.30;;;16.60;99.90;;;17.30;100.00;98837.72;4984879;28;20814;-77
2022/06/10 08:56:34;;;;;;;8.87;2.83;;;16.80;99.90;;;17.43;100.00;98835.00;4984740;28;20510;-77
2022/06/10 08:59:19;;;;;;;7.57;1.80;;;16.90;99.90;;;17.51;100.00;98836.59;4984691;28;20444;-77
2022/06/10 09:02:02;;;;;;;8.47;2.00;;;16.90;99.90;;;17.56;100.00;98829.69;4983017;28;20445;-76
2022/06/10 09:04:52;;;;;;;5.93;1.60;;;17.00;99.90;;;17.62;100.00;98832.50;4985968;28;20484;-77
2022/06/10 09:07:32;;;;;;;6.27;2.07;;;17.10;99.90;;;17.68;100.00;98835.13;4984958;28;20440;-77
2022/06/10 09:10:04;;;;;;;5.93;1.67;;;17.10;99.90;;;17.73;100.00;98837.13;4982894;28;20482;-77
2022/06/10 09:13:07;;;;;;;4.97;1.53;;;17.20;99.90;;;17.82;100.00;98836.66;4982914;28;20444;-77
2022/06/10 09:15:49;;;;;;;6.17;1.90;;;17.20;99.90;;;17.86;100.00;98834.41;4981245;28;20484;-77
2022/06/10 09:18:33;;;;;;;9.97;2.07;;;17.30;99.90;;;17.87;100.00;98839.50;4981987;28;20523;-77
2022/06/10 09:21:16;;;;;;;6.00;1.80;;;17.40;99.90;;;17.89;100.00;98841.91;4982135;28;20950;-77
2022/06/10 09:23:48;;;;;;;8.40;2.37;;;17.30;99.90;;;17.90;100.00;98839.06;4983178;28;20447;-77
2022/06/10 09:26:37;;;;;;;5.13;1.53;;;17.30;99.90;;;17.96;97.87;98845.31;4984000;28;20546;-77
2022/06/10 09:29:08;;;;;;;5.70;1.70;;;17.40;99.90;;;18.00;98.61;98838.56;4979709;28;20461;-77
2022/06/10 09:31:42;;;;;;;5.50;1.60;;;17.40;99.90;;;17.99;99.26;98832.47;4982860;28;20444;-77
2022/06/10 09:34:35;;;;;;;8.97;2.10;;;17.50;99.90;;;18.00;100.00;98833.28;4982048;28;20491;-77
2022/06/10 09:37:18;;;;;;;8.47;1.60;;;17.50;99.90;;;18.01;100.00;98834.91;4981097;28;20451;-77
2022/06/10 09:43:43;;;;;;;6.70;1.80;;;17.40;99.90;;;18.09;96.57;98842.56;4982563;28;20489;-77
2022/06/10 09:46:30;;;;;;;5.27;1.60;;;17.50;99.90;;;18.12;89.82;98834.19;4972680;28;21204;-77
2022/06/10 09:49:54;;;;;;;6.50;1.50;;;17.60;99.90;;;18.21;92.32;98832.91;4983045;28;20839;-77
2022/06/10 09:52:33;;;;;;;8.13;1.83;;;17.60;99.90;;;18.27;93.96;98829.38;4982690;28;20528;-77
2022/06/10 09:55:32;;;;;;;6.20;1.47;;;17.70;99.90;;;18.36;94.65;98833.38;4983281;28;20455;-77
2022/06/10 09:58:20;;;;;;;6.17;2.27;;;17.80;99.90;;;18.49;92.72;98827.16;4984130;28;20586;-77
2022/06/10 10:01:00;;;;;;;4.23;1.47;;;18.00;99.90;;;18.60;89.23;98824.63;4983102;28;20453;-77
2022/06/10 10:03:59;;;;;;;7.70;1.50;;;18.20;99.90;;;18.75;90.51;98820.81;4982168;28;20440;-77
2022/06/10 10:06:42;;;;;;;4.83;2.00;;;18.40;99.90;;;18.86;89.10;98822.72;4982188;28;20504;-77
2022/06/10 10:09:25;;;;;;;2.50;1.40;;;18.30;99.90;;;18.93;88.79;98812.88;4983985;28;20452;-77
2022/06/10 10:12:21;;;;;;;8.30;1.73;;;18.40;99.90;;;19.00;85.22;98818.91;4982782;28;20450;-78
2022/06/10 10:15:09;;;;;;;6.77;1.67;;;18.50;99.90;;;19.03;82.68;98807.84;4985033;28;20464;-77
2022/06/10 10:18:07;;;;;;;5.73;1.80;;;18.50;99.10;;;19.07;81.42;98820.44;4982258;28;20564;-77
2022/06/10 10:21:03;;;;;;;7.20;1.53;;;18.40;98.90;;;19.13;82.22;98817.94;4981607;28;20847;-76
2022/06/10 10:23:40;;;;;;;5.93;1.50;;;18.50;99.30;;;19.19;81.97;98820.53;4982153;28;20475;-77
2022/06/10 10:26:22;;;;;;;4.80;1.63;;;18.60;99.10;;;19.23;78.22;98812.94;4981509;28;20503;-77
2022/06/10 10:28:59;;;;;;;8.47;1.87;;;18.80;98.30;;;19.29;79.46;98818.16;4981384;28;20475;-77
2022/06/10 10:31:34;;;;;;;7.87;1.87;;;18.90;98.40;;;19.38;81.12;98811.50;4981959;28;20460;-77
2022/06/10 10:34:06;;;;;;;3.10;1.47;;;18.90;98.70;;;19.40;70.24;98812.06;4982022;28;20551;-77
2022/06/10 10:36:52;;;;;;;5.10;1.90;;;18.80;95.80;;;19.47;68.61;98814.69;4982908;28;20464;-77
2022/06/10 10:39:55;;;;;;;6.83;1.57;;;19.00;95.90;;;19.57;72.29;98815.75;4981544;28;20451;-77
2022/06/10 10:42:31;;;;;;;7.17;1.53;;;19.00;96.90;;;19.65;71.25;98813.78;4981330;28;20722;-77
2022/06/10 10:45:10;;;;;;;6.57;1.43;;;19.00;96.50;;;19.69;70.83;98807.00;4980377;28;20515;-77
2022/06/10 10:47:47;;;;;;;6.00;1.90;;;19.10;96.60;;;19.74;70.92;98799.19;4981478;28;20456;-77
2022/06/10 10:50:25;;;;;;;3.47;1.70;;;19.30;96.50;;;19.82;74.69;98806.84;4980285;28;20959;-77
2022/06/10 10:53:06;;;;;;;3.47;1.70;;;19.30;97.40;;;19.87;72.91;98810.41;4981131;28;20476;-77
2022/06/10 10:55:40;;;;;;;4.40;1.33;;;19.30;96.90;;;19.88;70.73;98803.25;4982725;28;20453;-77
2022/06/10 10:58:25;;;;;;;5.23;1.70;;;19.40;96.20;;;19.86;68.89;98797.34;4979024;28;20464;-78
2022/06/10 11:01:00;;;;;;;5.93;1.80;;;19.50;95.80;;;19.91;69.38;98806.28;4982172;28;20463;-77
2022/06/10 11:03:34;;;;;;;4.57;1.70;;;19.50;96.00;;;19.99;68.23;98803.25;4981970;28;20447;-77
2022/06/10 11:06:07;;;;;;;2.43;1.10;;;19.40;95.70;;;20.02;65.75;98802.84;4982148;28;20571;-77
2022/06/10 11:08:39;;;;;;;7.13;1.37;;;19.40;94.80;;;20.08;65.36;98799.25;4983516;28;20436;-77
2022/06/10 11:11:22;;;;;;;5.40;1.70;;;19.50;95.10;;;20.14;66.51;98799.34;4980023;28;20456;-77